createdAt,value
2023-03-17T00:01:44.331Z,98279.44
2023-03-17T00:07:10.351Z,98278.56
2023-03-17T00:12:38.319Z,98275.81
2023-03-17T00:18:04.308Z,98279.66
2023-03-17T00:23:32.288Z,98271.81
2023-03-17T00:28:53.345Z,98251.47
2023-03-17T00:34:18.364Z,98244.16
2023-03-17T00:39:43.329Z,98232.56
2023-03-17T00:45:19.334Z,98228.19
2023-03-17T00:50:45.334Z,98227.13
2023-03-17T00:56:10.331Z,98219.97
2023-03-17T01:01:38.373Z,98227.22
2023-03-17T01:07:05.321Z,98218.59
2023-03-17T01:12:30.425Z,98218.59
2023-03-17T01:17:58.313Z,98203.22
2023-03-17T01:23:23.345Z,98201.28
2023-03-17T01:28:48.348Z,98191.59
2023-03-17T01:34:16.361Z,98190.88
2023-03-17T01:39:41.325Z,98195.19
2023-03-17T01:45:09.361Z,98186.50
2023-03-17T01:50:37.385Z,98166.00
2023-03-17T01:56:03.353Z,98153.03
2023-03-17T02:01:28.373Z,98148.44
2023-03-17T02:06:59.107Z,98145.72
2023-03-17T02:12:25.499Z,98150.09
2023-03-17T02:17:50.350Z,98153.72
2023-03-17T02:23:19.359Z,98153.19
2023-03-17T02:28:46.569Z,98155.03
2023-03-17T02:34:10.488Z,98132.34
2023-03-17T02:39:38.383Z,98127.00
2023-03-17T02:45:04.367Z,98133.78
2023-03-17T02:50:32.407Z,98118.75
2023-03-17T02:55:59.369Z,98128.88
2023-03-17T03:01:24.452Z,98124.59
2023-03-17T03:06:49.399Z,98131.06
2023-03-17T03:12:18.401Z,98132.38
2023-03-17T03:17:42.474Z,98139.84
2023-03-17T03:23:07.417Z,98129.56
2023-03-17T03:28:35.399Z,98136.13
2023-03-17T03:34:00.361Z,98139.50
2023-03-17T03:39:25.418Z,98122.38
2023-03-17T03:44:59.476Z,98114.28
2023-03-17T03:50:24.403Z,98106.59
2023-03-17T03:55:49.474Z,98102.22
2023-03-17T04:01:19.605Z,98097.47
2023-03-17T04:06:43.400Z,98086.00
2023-03-17T04:12:08.404Z,98107.09
2023-03-17T04:17:35.389Z,98096.88
2023-03-17T04:23:00.407Z,98090.25
2023-03-17T04:28:24.410Z,98086.97
2023-03-17T04:33:52.423Z,98078.53
2023-03-17T04:39:17.406Z,98078.72
2023-03-17T04:44:43.427Z,98078.97
2023-03-17T04:50:10.577Z,98084.31
2023-03-17T04:55:35.404Z,98080.91
2023-03-17T05:00:59.572Z,98083.16
2023-03-17T05:06:27.425Z,98080.75
2023-03-17T05:11:51.446Z,98092.13
2023-03-17T05:17:16.413Z,98089.28
2023-03-17T05:22:43.455Z,98084.47
2023-03-17T05:28:08.449Z,98079.78
2023-03-17T05:33:34.434Z,98069.56
2023-03-17T05:39:03.451Z,98061.81
2023-03-17T05:44:34.421Z,98068.28
2023-03-17T05:49:59.535Z,98081.34
2023-03-17T05:55:27.476Z,98085.97
2023-03-17T06:00:53.457Z,98060.84
2023-03-17T06:06:17.472Z,98046.94
2023-03-17T06:11:45.448Z,98056.75
2023-03-17T06:17:11.471Z,98040.06
2023-03-17T06:22:36.683Z,98035.69
2023-03-17T06:28:04.601Z,98020.41
2023-03-17T06:33:30.459Z,98013.81
2023-03-17T06:38:55.491Z,98041.53
2023-03-17T06:44:29.475Z,98050.81
2023-03-17T06:49:55.453Z,98063.75
2023-03-17T06:55:21.475Z,98068.13
2023-03-17T07:00:49.519Z,98073.63
2023-03-17T07:06:13.480Z,98060.22
2023-03-17T07:11:39.484Z,98063.25
2023-03-17T07:17:06.482Z,98064.84
2023-03-17T07:22:32.493Z,98053.06
2023-03-17T07:27:56.519Z,98062.66
2023-03-17T07:33:24.477Z,98050.88
2023-03-17T07:38:50.551Z,98058.19
2023-03-17T07:44:22.538Z,98056.25
2023-03-17T07:49:50.517Z,98042.63
2023-03-17T07:55:15.475Z,98038.66
2023-03-17T08:00:41.480Z,98037.47
2023-03-17T08:06:12.522Z,98035.22
2023-03-17T08:11:37.629Z,98038.22
2023-03-17T08:17:03.868Z,98053.34
2023-03-17T08:22:32.537Z,98047.00
2023-03-17T08:27:56.550Z,98039.75
2023-03-17T08:33:22.649Z,98036.91
2023-03-17T08:38:52.540Z,98043.66
2023-03-17T08:44:19.408Z,98030.38
2023-03-17T08:49:43.547Z,98032.41
2023-03-17T08:55:11.545Z,98028.50
2023-03-17T09:00:37.533Z,98025.75
2023-03-17T09:06:04.541Z,98029.03
2023-03-17T09:11:34.548Z,98018.19
2023-03-17T09:17:00.533Z,98024.50
2023-03-17T09:22:30.230Z,98030.75
2023-03-17T09:27:59.544Z,98029.72
2023-03-17T09:33:24.577Z,98016.75
2023-03-17T09:38:50.352Z,98022.69
2023-03-17T09:44:35.546Z,98019.13
2023-03-17T09:50:05.547Z,98014.84
2023-03-17T09:55:41.560Z,98016.28
2023-03-17T10:01:09.758Z,98002.03
2023-03-17T10:06:43.587Z,98002.59
2023-03-17T10:12:17.584Z,98006.97
2023-03-17T10:17:49.722Z,98005.78
2023-03-17T10:23:18.583Z,97990.47
2023-03-17T10:28:45.589Z,97975.56
2023-03-17T10:34:21.768Z,97985.28
2023-03-17T10:39:54.651Z,97982.06
2023-03-17T10:45:32.608Z,97969.13
2023-03-17T10:51:02.575Z,97960.84
2023-03-17T10:56:36.568Z,97953.84
2023-03-17T11:02:03.608Z,97953.63
2023-03-17T11:07:35.591Z,97937.00
2023-03-17T11:13:05.621Z,97923.59
2023-03-17T11:18:34.634Z,97928.41
2023-03-17T11:24:11.768Z,97936.34
2023-03-17T11:29:49.632Z,97929.34
2023-03-17T11:35:33.657Z,97916.53
2023-03-17T11:41:30.616Z,97924.38
2023-03-17T11:47:01.608Z,97917.13
2023-03-17T11:52:34.664Z,97910.34
2023-03-17T11:58:06.622Z,97901.88
2023-03-17T12:03:39.686Z,97891.47
2023-03-17T12:09:10.605Z,97884.00
2023-03-17T12:14:44.966Z,97878.81
2023-03-17T12:20:22.637Z,97886.31
2023-03-17T12:25:49.622Z,97881.75
2023-03-17T12:31:21.688Z,97872.78
2023-03-17T12:36:45.734Z,97869.66
2023-03-17T12:42:30.681Z,97867.50
2023-03-17T12:48:08.661Z,97860.56
2023-03-17T12:53:38.730Z,97855.91
2023-03-17T12:59:08.673Z,97854.13
2023-03-17T13:04:39.673Z,97852.22
2023-03-17T13:10:04.679Z,97840.09
2023-03-17T13:15:37.708Z,97839.94
2023-03-17T13:21:22.704Z,97831.75
2023-03-17T13:27:11.708Z,97821.88
2023-03-17T13:32:51.710Z,97811.84
2023-03-17T13:38:40.661Z,97809.63
2023-03-17T13:44:37.739Z,97819.31
2023-03-17T13:50:04.698Z,97803.00
2023-03-17T13:55:53.757Z,97796.50
2023-03-17T14:01:22.715Z,97796.97
2023-03-17T14:06:51.719Z,97789.97
2023-03-17T14:12:26.712Z,97785.13
2023-03-17T14:17:57.725Z,97777.19
2023-03-17T14:23:22.721Z,97773.38
2023-03-17T14:28:50.810Z,97776.53
2023-03-17T14:34:22.750Z,97771.16
2023-03-17T14:39:47.743Z,97774.09
2023-03-17T14:45:17.704Z,97775.63
2023-03-17T14:50:45.904Z,97777.78
2023-03-17T14:56:11.733Z,97764.19
2023-03-17T15:01:50.299Z,97766.47
2023-03-17T15:07:15.846Z,97752.38
2023-03-17T15:12:42.804Z,97752.09
2023-03-17T15:18:16.781Z,97753.94
2023-03-17T15:23:44.733Z,97750.56
2023-03-17T15:29:09.752Z,97745.88
2023-03-17T15:34:36.765Z,97745.28
2023-03-17T15:40:03.758Z,97736.94
2023-03-17T15:45:30.837Z,97741.09
2023-03-17T15:50:59.801Z,97734.13
2023-03-17T15:56:34.762Z,97740.53
2023-03-17T16:02:05.774Z,97733.78
2023-03-17T16:07:33.776Z,97737.59
2023-03-17T16:12:57.778Z,97732.75
2023-03-17T16:18:27.800Z,97731.06
2023-03-17T16:23:54.797Z,97732.06
2023-03-17T16:29:22.847Z,97726.94
2023-03-17T16:34:46.785Z,97733.28
2023-03-17T16:40:22.930Z,97734.66
2023-03-17T16:45:48.811Z,97731.53
2023-03-17T16:51:14.901Z,97736.41
2023-03-17T16:56:42.889Z,97732.22
2023-03-17T17:02:15.089Z,97745.78
2023-03-17T17:07:39.849Z,97737.59
2023-03-17T17:13:07.782Z,97740.91
2023-03-17T17:18:35.905Z,97745.41
2023-03-17T17:24:02.848Z,97746.59
2023-03-17T17:29:32.401Z,97733.16
2023-03-17T17:34:55.878Z,97743.06
2023-03-17T17:40:23.839Z,97758.38
2023-03-17T17:45:50.824Z,97750.75
2023-03-17T17:51:15.880Z,97756.06
2023-03-17T17:56:44.856Z,97753.78
2023-03-17T18:02:12.859Z,97753.69
2023-03-17T18:07:37.971Z,97753.91
2023-03-17T18:13:02.839Z,97760.91
2023-03-17T18:18:29.914Z,97764.78
2023-03-17T18:23:56.939Z,97771.28
2023-03-17T18:29:21.862Z,97764.53
2023-03-17T18:34:52.900Z,97769.22
2023-03-17T18:40:18.913Z,97761.78
2023-03-17T18:45:43.956Z,97781.34
2023-03-17T18:51:10.879Z,97781.44
2023-03-17T18:56:36.896Z,97788.34
2023-03-17T19:02:00.904Z,97793.06
2023-03-17T19:07:29.039Z,97793.34
2023-03-17T19:12:53.888Z,97793.25
2023-03-17T19:18:18.901Z,97803.44
2023-03-17T19:23:45.877Z,97791.53
2023-03-17T19:29:10.994Z,97788.38
2023-03-17T19:34:34.896Z,97784.28
2023-03-17T19:40:02.916Z,97792.97
2023-03-17T19:45:27.931Z,97794.19
2023-03-17T19:50:52.928Z,97794.25
2023-03-17T19:56:22.037Z,97794.13
2023-03-17T20:01:48.975Z,97785.47
2023-03-17T20:07:19.956Z,97780.78
2023-03-17T20:12:49.922Z,97776.78
2023-03-17T20:18:14.929Z,97773.09
2023-03-17T20:23:41.590Z,97768.13
2023-03-17T20:29:08.925Z,97767.31
2023-03-17T20:34:33.911Z,97766.19
2023-03-17T20:40:00.947Z,97762.88
2023-03-17T20:45:30.580Z,97760.22
2023-03-17T20:50:55.956Z,97760.41
2023-03-17T20:56:24.318Z,97755.91
2023-03-17T21:01:55.003Z,97755.22
2023-03-17T21:07:26.951Z,97771.09
2023-03-17T21:12:52.073Z,97769.41
2023-03-17T21:18:21.991Z,97766.56
2023-03-17T21:23:48.013Z,97769.41
2023-03-17T21:29:12.936Z,97764.19
2023-03-17T21:34:41.942Z,97761.38
2023-03-17T21:40:05.968Z,97764.59
2023-03-17T21:45:32.017Z,97766.13
2023-03-17T21:51:00.009Z,97770.53
2023-03-17T21:56:26.990Z,97770.03
2023-03-17T22:01:53.061Z,97765.31
2023-03-17T22:07:26.984Z,97756.56
2023-03-17T22:12:52.013Z,97759.78
2023-03-17T22:18:16.984Z,97759.50
2023-03-17T22:23:48.013Z,97767.06
2023-03-17T22:29:14.016Z,97759.00
2023-03-17T22:34:39.025Z,97767.22
2023-03-17T22:40:11.042Z,97757.66
2023-03-17T22:45:44.059Z,97747.22
2023-03-17T22:51:11.037Z,97753.09
2023-03-17T22:56:40.042Z,97760.69
2023-03-17T23:02:05.052Z,97766.25
2023-03-17T23:07:49.588Z,97763.72
2023-03-17T23:13:19.014Z,97775.25
2023-03-17T23:18:46.122Z,97777.09
2023-03-17T23:24:12.039Z,97771.50
2023-03-17T23:29:39.423Z,97770.00
2023-03-17T23:35:04.047Z,97777.41
2023-03-17T23:40:30.405Z,97779.09
2023-03-17T23:46:01.140Z,97784.81
2023-03-17T23:51:27.051Z,97783.31
2023-03-17T23:56:52.045Z,97785.00
